Iowa City, IA

12:42 PM CDT on July 30, 2016 (GMT -0500)
Iowa City Municipal | | Change Station

Elev 666 ft 41.63 °N, 91.54 °W | Updated 19 minutes ago

Overcast
Overcast
76 °F
Feels Like 76 °F
N
7
Wind Variable Wind from NNE

Today
High -- | Low -- °F
--% Chance of Precip.
Yesterday
High -- | Low -- °F
Precip. -- in
Pressure 30.02 in
Visibility 10.0 miles
Clouds Scattered Clouds 2300 ft
Overcast 8000 ft
Dew Point 66 °F
Humidity 71%
Rainfall 0.00 in
Snow Depth Not available.
5:59 AM 8:25 PM
Waning Crescent, 12% visible
SPECI KIOW 301723Z AUTO 02006KT 10SM SCT023 OVC080 24/19 A3002 RMK AO2 T02440189
Pressure 30.02 in
Visibility 10.0 miles
Clouds Scattered Clouds 2300 ft
Overcast 8000 ft
Dew Point 66 °F
Humidity 71%
Rainfall 0.00 in
Snow Depth Not available.
5:59 AM 8:25 PM
Waning Crescent, 12% visible
SPECI KIOW 301723Z AUTO 02006KT 10SM SCT023 OVC080 24/19 A3002 RMK AO2 T02440189

10-Day Weather Forecast

Almanac

Astronomy

Jul. 30, 2016 Rise Set
Actual Time
Civil Twilight
Nautical Twilight
Astronomical Twilight
Moon
Length of Visible Light
Length of Day
Tomorrow will be .
, % of the Moon is Illuminated

Today's Extremes

State Highs State Lows

Community

WunderPhotos

Upload Photos

1,928,600 photos uploaded!

WunderBlog® & News

Nearby

Air Quality

  Air Quality AQ Index Pollutant
Not available.

Snow Depth

Station Depth Elevation

Earthquake Activity

City Distance Mag. Time & Date
Minimum magnitude displayed is 2.5.

Coastal Water Temperatures

Place Temperature

Stations

Nearby Weather Stations

Station Location Temp. Windchill Dew Point Humidity Wind Precip. Elev Updated Type
                   

Watches & Warnings

There are currently no watches in effect.